createdAt,value
2023-02-11T00:00:08.766Z,82.10
2023-02-11T00:01:08.773Z,88.10
2023-02-11T00:02:08.777Z,86.00
2023-02-11T00:03:08.798Z,84.10
2023-02-11T00:04:08.731Z,81.20
2023-02-11T00:05:08.724Z,84.30
2023-02-11T00:06:08.719Z,85.20
2023-02-11T00:07:08.704Z,88.00
2023-02-11T00:08:08.698Z,83.20
2023-02-11T00:09:08.685Z,73.00
2023-02-11T00:10:08.671Z,76.80
2023-02-11T00:11:08.674Z,83.50
2023-02-11T00:12:08.643Z,79.40
2023-02-11T00:13:08.638Z,76.10
2023-02-11T00:14:14.746Z,75.40
2023-02-11T00:15:08.630Z,83.00
2023-02-11T00:16:08.615Z,78.50
2023-02-11T00:17:08.618Z,85.40
2023-02-11T00:18:08.589Z,82.20
2023-02-11T00:19:08.609Z,79.60
2023-02-11T00:20:08.575Z,75.60
2023-02-11T00:21:08.577Z,75.90
2023-02-11T00:22:08.550Z,83.70
2023-02-11T00:23:08.541Z,78.20
2023-02-11T00:24:08.563Z,79.10
2023-02-11T00:25:08.523Z,81.50
2023-02-11T00:26:08.504Z,82.90
2023-02-11T00:27:08.500Z,79.80
2023-02-11T00:28:08.500Z,77.20
2023-02-11T00:29:08.493Z,68.80
2023-02-11T00:30:08.480Z,74.20
2023-02-11T00:31:08.584Z,70.40
2023-02-11T00:32:08.443Z,74.90
2023-02-11T00:33:08.442Z,68.80
2023-02-11T00:34:08.439Z,75.50
2023-02-11T00:35:08.415Z,73.00
2023-02-11T00:36:08.428Z,76.40
2023-02-11T00:37:08.407Z,76.40
2023-02-11T00:38:08.376Z,77.50
2023-02-11T00:39:08.376Z,74.20
2023-02-11T00:40:08.355Z,79.30
2023-02-11T00:41:08.368Z,76.90
2023-02-11T00:42:08.352Z,77.70
2023-02-11T00:43:08.334Z,77.90
2023-02-11T00:44:08.327Z,78.40
2023-02-11T00:45:08.315Z,73.40
2023-02-11T00:46:08.379Z,72.80
2023-02-11T00:47:08.310Z,72.50
2023-02-11T00:48:08.276Z,77.70
2023-02-11T00:49:08.289Z,76.40
2023-02-11T00:50:08.266Z,73.80
2023-02-11T00:51:08.269Z,71.00
2023-02-11T00:52:08.249Z,76.80
2023-02-11T00:53:08.241Z,76.10
2023-02-11T00:54:08.242Z,71.20
2023-02-11T00:55:08.218Z,76.50
2023-02-11T00:56:08.208Z,71.60
2023-02-11T00:57:08.229Z,76.90
2023-02-11T00:58:08.172Z,76.70
2023-02-11T00:59:08.169Z,83.70
2023-02-11T01:00:08.165Z,92.30
2023-02-11T01:01:08.196Z,81.80
2023-02-11T01:02:08.184Z,84.60
2023-02-11T01:03:08.127Z,89.80
2023-02-11T01:04:08.110Z,90.10
2023-02-11T01:05:08.149Z,84.80
2023-02-11T01:06:08.108Z,80.70
2023-02-11T01:07:08.147Z,89.20
2023-02-11T01:08:08.094Z,94.30
2023-02-11T01:09:08.088Z,87.00
2023-02-11T01:10:08.058Z,78.80
2023-02-11T01:11:08.062Z,94.30
2023-02-11T01:12:08.034Z,94.20
2023-02-11T01:13:08.046Z,85.10
2023-02-11T01:14:08.050Z,86.40
2023-02-11T01:15:08.005Z,85.50
2023-02-11T01:16:08.029Z,86.50
2023-02-11T01:17:08.017Z,97.90
2023-02-11T01:18:08.007Z,98.40
2023-02-11T01:19:07.973Z,99.00
2023-02-11T01:20:07.970Z,103.90
2023-02-11T01:21:07.963Z,107.70
2023-02-11T01:22:07.943Z,120.10
2023-02-11T01:23:07.947Z,130.90
2023-02-11T01:24:07.911Z,124.90
2023-02-11T01:25:07.910Z,126.90
2023-02-11T01:26:07.894Z,139.40
2023-02-11T01:27:07.910Z,164.60
2023-02-11T01:28:07.893Z,148.00
2023-02-11T01:29:07.869Z,121.80
2023-02-11T01:30:07.902Z,133.30
2023-02-11T01:31:07.901Z,147.10
2023-02-11T01:32:07.930Z,138.70
2023-02-11T01:33:07.838Z,181.30
2023-02-11T01:34:07.821Z,220.70
2023-02-11T01:35:07.816Z,268.70
2023-02-11T01:36:07.829Z,218.80
2023-02-11T01:37:07.858Z,265.00
2023-02-11T01:38:07.815Z,325.70
2023-02-11T01:39:07.792Z,310.40
2023-02-11T01:40:07.760Z,338.20
2023-02-11T01:41:07.789Z,416.10
2023-02-11T01:42:07.742Z,393.80
2023-02-11T01:43:07.729Z,437.10
2023-02-11T01:44:07.715Z,459.70
2023-02-11T01:45:07.707Z,486.90
2023-02-11T01:46:07.772Z,418.80
2023-02-11T01:47:07.695Z,403.30
2023-02-11T01:48:07.669Z,479.50
2023-02-11T01:49:07.703Z,457.80
2023-02-11T01:50:07.694Z,482.70
2023-02-11T01:51:07.649Z,297.70
2023-02-11T01:52:07.641Z,380.90
2023-02-11T01:53:07.620Z,490.00
2023-02-11T01:54:07.710Z,473.30
2023-02-11T01:55:07.615Z,482.50
2023-02-11T01:56:07.606Z,498.80
2023-02-11T01:57:07.600Z,511.70
2023-02-11T01:58:07.613Z,330.80
2023-02-11T01:59:07.574Z,384.80
2023-02-11T02:00:07.589Z,508.10
2023-02-11T02:01:07.541Z,456.00
2023-02-11T02:02:07.544Z,386.60
2023-02-11T02:03:07.586Z,463.00
2023-02-11T02:04:07.536Z,402.80
2023-02-11T02:05:07.503Z,402.20
2023-02-11T02:06:07.492Z,521.10
2023-02-11T02:07:07.523Z,515.10
2023-02-11T02:08:07.472Z,437.70
2023-02-11T02:09:07.460Z,517.60
2023-02-11T02:10:07.462Z,509.30
2023-02-11T02:11:07.489Z,523.70
2023-02-11T02:12:07.446Z,284.70
2023-02-11T02:13:07.421Z,393.90
2023-02-11T02:14:07.414Z,394.90
2023-02-11T02:15:07.399Z,485.20
2023-02-11T02:16:09.779Z,432.30
2023-02-11T02:17:07.436Z,463.40
2023-02-11T02:18:07.364Z,480.00
2023-02-11T02:19:07.365Z,412.20
2023-02-11T02:20:07.348Z,525.80
2023-02-11T02:21:07.329Z,537.10
2023-02-11T02:22:07.384Z,490.70
2023-02-11T02:23:07.315Z,514.70
2023-02-11T02:24:07.311Z,442.70
2023-02-11T02:25:07.296Z,531.10
2023-02-11T02:26:07.324Z,507.70
2023-02-11T02:27:07.289Z,509.20
2023-02-11T02:28:07.287Z,543.20
2023-02-11T02:29:07.267Z,546.80
2023-02-11T02:30:07.255Z,503.90
2023-02-11T02:31:07.444Z,497.80
2023-02-11T02:32:07.290Z,426.50
2023-02-11T02:33:21.682Z,452.20
2023-02-11T02:34:07.214Z,356.10
2023-02-11T02:35:07.236Z,493.00
2023-02-11T02:36:07.194Z,477.90
2023-02-11T02:37:07.182Z,446.50
2023-02-11T02:38:07.165Z,531.50
2023-02-11T02:39:07.224Z,399.70
2023-02-11T02:40:07.146Z,557.60
2023-02-11T02:41:07.128Z,542.20
2023-02-11T02:42:07.152Z,531.10
2023-02-11T02:43:07.144Z,488.80
2023-02-11T02:44:07.123Z,551.30
2023-02-11T02:45:07.095Z,569.20
2023-02-11T02:46:07.098Z,376.70
2023-02-11T02:47:07.103Z,566.30
2023-02-11T02:48:07.074Z,541.90
2023-02-11T02:49:07.056Z,437.70
2023-02-11T02:50:07.044Z,501.20
2023-02-11T02:51:07.033Z,472.20
2023-02-11T02:52:07.083Z,489.40
2023-02-11T02:53:07.004Z,521.60
2023-02-11T02:54:07.022Z,521.70
2023-02-11T02:55:06.983Z,427.60
2023-02-11T02:56:06.981Z,426.70
2023-02-11T02:57:06.996Z,361.90
2023-02-11T02:58:06.964Z,393.40
2023-02-11T02:59:06.952Z,404.40
2023-02-11T03:00:06.942Z,493.10
2023-02-11T03:01:07.002Z,555.90
2023-02-11T03:02:06.955Z,574.30
2023-02-11T03:03:06.913Z,446.10
2023-02-11T03:04:06.957Z,522.20
2023-02-11T03:05:06.889Z,413.20
2023-02-11T03:06:06.879Z,479.60
2023-02-11T03:07:06.916Z,418.30
2023-02-11T03:08:06.863Z,513.80
2023-02-11T03:09:09.004Z,486.90
2023-02-11T03:10:06.838Z,538.30
2023-02-11T03:11:06.825Z,525.40
2023-02-11T03:12:06.840Z,530.10
2023-02-11T03:13:06.805Z,508.50
2023-02-11T03:14:06.801Z,526.20
2023-02-11T03:15:06.821Z,502.90
2023-02-11T03:16:06.852Z,534.10
2023-02-11T03:17:06.767Z,513.10
2023-02-11T03:18:06.760Z,536.40
2023-02-11T03:19:06.749Z,542.90
2023-02-11T03:20:06.786Z,550.50
2023-02-11T03:21:06.729Z,468.90
2023-02-11T03:22:06.759Z,531.10
2023-02-11T03:23:06.713Z,523.10
2023-02-11T03:24:06.694Z,436.80
2023-02-11T03:25:06.705Z,534.40
2023-02-11T03:26:06.704Z,502.80
2023-02-11T03:27:06.679Z,526.50
2023-02-11T03:28:06.670Z,427.10
2023-02-11T03:29:06.664Z,425.00
2023-02-11T03:30:06.646Z,518.40
2023-02-11T03:31:06.818Z,465.20
2023-02-11T03:32:06.725Z,475.90
2023-02-11T03:33:06.605Z,551.30
2023-02-11T03:34:06.600Z,446.60
2023-02-11T03:35:06.598Z,555.40
2023-02-11T03:36:06.580Z,538.40
2023-02-11T03:37:06.583Z,537.90
2023-02-11T03:38:06.610Z,504.50
2023-02-11T03:39:06.547Z,431.10
2023-02-11T03:40:06.557Z,493.30
2023-02-11T03:41:06.530Z,481.10
2023-02-11T03:42:06.536Z,520.20
2023-02-11T03:43:06.506Z,521.70
2023-02-11T03:44:06.503Z,542.50
2023-02-11T03:45:06.510Z,427.20
2023-02-11T03:46:06.534Z,439.60
2023-02-11T03:47:06.517Z,496.80
2023-02-11T03:48:06.464Z,489.60
2023-02-11T03:49:06.445Z,417.20
2023-02-11T03:50:06.454Z,405.20
2023-02-11T03:51:06.431Z,385.20
2023-02-11T03:52:06.450Z,458.60
2023-02-11T03:53:06.410Z,493.90
2023-02-11T03:54:06.402Z,460.60
2023-02-11T03:55:06.385Z,448.30
2023-02-11T03:56:06.421Z,377.60
2023-02-11T03:57:06.393Z,297.30
2023-02-11T03:58:06.358Z,449.40
2023-02-11T03:59:06.362Z,461.80
2023-02-11T04:00:06.335Z,478.50
2023-02-11T04:01:06.353Z,337.70
2023-02-11T04:02:06.324Z,445.00
2023-02-11T04:03:06.357Z,473.90
2023-02-11T04:04:06.300Z,459.10
2023-02-11T04:05:06.284Z,475.80
2023-02-11T04:06:06.282Z,440.20
2023-02-11T04:07:06.279Z,390.90
2023-02-11T04:08:06.256Z,395.30
2023-02-11T04:09:06.238Z,483.00
2023-02-11T04:10:06.231Z,452.80
2023-02-11T04:11:06.274Z,502.70
2023-02-11T04:12:06.235Z,475.10
2023-02-11T04:13:06.210Z,431.90
2023-02-11T04:14:06.204Z,431.30
2023-02-11T04:15:06.215Z,498.30
2023-02-11T04:16:06.208Z,494.70
2023-02-11T04:17:06.221Z,441.10
2023-02-11T04:18:06.154Z,404.30
2023-02-11T04:19:06.154Z,497.50
2023-02-11T04:20:06.174Z,517.70
2023-02-11T04:21:06.122Z,427.50
2023-02-11T04:22:06.145Z,502.10
2023-02-11T04:23:06.106Z,514.10
2023-02-11T04:24:06.098Z,476.70
2023-02-11T04:25:06.114Z,488.30
2023-02-11T04:26:06.072Z,493.30
2023-02-11T04:27:06.109Z,513.30
2023-02-11T04:28:06.113Z,510.10
2023-02-11T04:29:06.046Z,361.70
2023-02-11T04:30:06.050Z,466.90
2023-02-11T04:31:06.070Z,482.20
2023-02-11T04:32:06.089Z,453.60
2023-02-11T04:33:06.050Z,384.70
2023-02-11T04:34:05.996Z,528.90
2023-02-11T04:35:05.976Z,524.60
2023-02-11T04:36:05.985Z,432.80
2023-02-11T04:37:05.957Z,515.60
2023-02-11T04:38:05.967Z,561.40
2023-02-11T04:39:05.941Z,535.20
2023-02-11T04:40:05.939Z,549.60
2023-02-11T04:41:05.971Z,467.90
2023-02-11T04:42:05.922Z,539.00
2023-02-11T04:43:05.913Z,497.60
2023-02-11T04:44:05.890Z,515.70
2023-02-11T04:45:05.889Z,503.70
2023-02-11T04:46:05.908Z,444.20
2023-02-11T04:47:05.854Z,445.80
2023-02-11T04:48:05.864Z,490.80
2023-02-11T04:49:05.832Z,564.20
2023-02-11T04:50:05.826Z,452.30
2023-02-11T04:51:05.821Z,555.70
2023-02-11T04:52:05.809Z,548.20
2023-02-11T04:53:05.819Z,572.80
2023-02-11T04:54:05.786Z,615.00
2023-02-11T04:55:05.775Z,556.80
2023-02-11T04:56:05.768Z,392.60
2023-02-11T04:57:05.747Z,514.10
2023-02-11T04:58:05.783Z,555.70
2023-02-11T04:59:05.773Z,487.50
2023-02-11T05:00:05.732Z,407.90
2023-02-11T05:01:05.759Z,574.40
2023-02-11T05:02:05.730Z,551.00
2023-02-11T05:03:05.738Z,554.10
2023-02-11T05:04:05.754Z,461.00
2023-02-11T05:05:05.684Z,550.50
2023-02-11T05:06:05.672Z,491.50
2023-02-11T05:07:05.672Z,538.10
2023-02-11T05:08:05.662Z,539.50
2023-02-11T05:09:05.631Z,531.30
2023-02-11T05:10:05.619Z,537.90
2023-02-11T05:11:05.622Z,509.90
2023-02-11T05:12:05.615Z,376.40
2023-02-11T05:13:05.632Z,389.80
2023-02-11T05:14:05.602Z,393.20
2023-02-11T05:15:05.582Z,480.40
2023-02-11T05:16:05.561Z,383.80
2023-02-11T05:17:05.560Z,492.70
2023-02-11T05:18:05.587Z,378.80
2023-02-11T05:19:05.542Z,375.50
2023-02-11T05:20:05.528Z,281.80
2023-02-11T05:21:05.518Z,409.80
2023-02-11T05:22:05.566Z,414.70
2023-02-11T05:23:05.503Z,370.90
2023-02-11T05:24:05.490Z,412.10
2023-02-11T05:25:05.487Z,425.00
2023-02-11T05:26:05.461Z,521.30
2023-02-11T05:27:05.451Z,517.40
2023-02-11T05:28:05.525Z,492.40
2023-02-11T05:29:05.423Z,542.90
2023-02-11T05:30:05.483Z,465.80
2023-02-11T05:31:05.475Z,470.90
2023-02-11T05:32:05.414Z,453.90
2023-02-11T05:33:05.408Z,431.90
2023-02-11T05:34:05.379Z,527.40
2023-02-11T05:35:05.376Z,358.30
2023-02-11T05:36:05.359Z,400.20
2023-02-11T05:37:05.416Z,395.20
2023-02-11T05:38:05.359Z,434.30
2023-02-11T05:39:05.364Z,324.80
2023-02-11T05:40:05.333Z,477.50
2023-02-11T05:41:05.308Z,384.40
2023-02-11T05:42:05.311Z,466.00
2023-02-11T05:43:05.301Z,507.40
2023-02-11T05:44:05.317Z,459.90
2023-02-11T05:45:05.262Z,353.30
2023-02-11T05:46:05.394Z,445.80
2023-02-11T05:47:05.264Z,471.90
2023-02-11T05:48:05.283Z,372.20
2023-02-11T05:49:05.236Z,432.30
2023-02-11T05:50:05.251Z,417.70
2023-02-11T05:51:05.221Z,467.70
2023-02-11T05:52:05.222Z,423.70
2023-02-11T05:53:05.225Z,439.70
2023-02-11T05:54:05.171Z,345.80
2023-02-11T05:55:05.161Z,468.70
2023-02-11T05:56:05.165Z,467.40
2023-02-11T05:57:05.158Z,419.20
2023-02-11T05:58:05.171Z,450.00
2023-02-11T05:59:05.132Z,332.30
2023-02-11T06:00:05.119Z,435.80
2023-02-11T06:01:05.123Z,447.00
2023-02-11T06:02:05.119Z,426.80
2023-02-11T06:03:05.104Z,309.90
2023-02-11T06:04:05.074Z,451.80
2023-02-11T06:05:05.074Z,441.70
2023-02-11T06:06:05.068Z,404.90
2023-02-11T06:07:05.080Z,368.80
2023-02-11T06:08:05.086Z,325.90
2023-02-11T06:09:05.017Z,407.70
2023-02-11T06:10:05.043Z,466.70
2023-02-11T06:11:04.999Z,445.10
2023-02-11T06:12:04.995Z,325.20
2023-02-11T06:13:05.025Z,294.60
2023-02-11T06:14:04.972Z,428.20
2023-02-11T06:15:04.903Z,432.50
2023-02-11T06:16:04.929Z,401.50
2023-02-11T06:17:04.920Z,348.60
2023-02-11T06:18:04.912Z,417.60
2023-02-11T06:19:04.923Z,374.20
2023-02-11T06:20:04.888Z,420.50
2023-02-11T06:21:04.866Z,329.70
2023-02-11T06:22:04.840Z,374.80
2023-02-11T06:23:04.844Z,440.40
2023-02-11T06:24:04.817Z,479.00
2023-02-11T06:25:04.820Z,488.70
2023-02-11T06:26:04.854Z,478.20
2023-02-11T06:27:04.800Z,369.70
2023-02-11T06:28:04.918Z,487.70
2023-02-11T06:29:04.767Z,446.30
2023-02-11T06:30:04.755Z,488.20
2023-02-11T06:31:04.922Z,504.30
2023-02-11T06:32:04.890Z,474.10
2023-02-11T06:33:04.751Z,388.10
2023-02-11T06:34:04.712Z,366.00
2023-02-11T06:35:04.722Z,407.00
2023-02-11T06:36:04.699Z,452.40
2023-02-11T06:37:04.679Z,373.70
2023-02-11T06:38:04.703Z,345.40
2023-02-11T06:39:04.664Z,363.70
2023-02-11T06:40:04.721Z,397.00
2023-02-11T06:41:04.657Z,370.20
2023-02-11T06:42:07.642Z,417.20
2023-02-11T06:43:04.686Z,361.10
2023-02-11T06:44:04.612Z,412.00
2023-02-11T06:45:04.720Z,297.10
2023-02-11T06:46:04.609Z,336.10
2023-02-11T06:47:04.617Z,318.90
2023-02-11T06:48:04.638Z,337.90
2023-02-11T06:49:04.556Z,308.90
2023-02-11T06:50:04.604Z,339.30
2023-02-11T06:51:04.549Z,336.80
2023-02-11T06:52:04.555Z,356.40
2023-02-11T06:53:04.590Z,353.70
2023-02-11T06:54:04.500Z,436.60
2023-02-11T06:55:04.501Z,459.00
2023-02-11T06:56:04.500Z,460.00
2023-02-11T06:57:04.503Z,348.70
2023-02-11T06:58:04.511Z,394.70
2023-02-11T06:59:04.452Z,371.50
2023-02-11T07:00:05.684Z,336.30
2023-02-11T07:01:04.458Z,409.50
2023-02-11T07:02:04.515Z,371.20
2023-02-11T07:03:04.484Z,422.90
2023-02-11T07:04:04.431Z,408.00
2023-02-11T07:05:04.414Z,357.90
2023-02-11T07:06:04.458Z,367.30
2023-02-11T07:07:04.398Z,352.60
2023-02-11T07:08:04.435Z,304.50
2023-02-11T07:09:04.393Z,351.80
2023-02-11T07:10:04.356Z,346.20
2023-02-11T07:11:04.337Z,349.60
2023-02-11T07:12:04.316Z,374.30
2023-02-11T07:13:04.371Z,321.20
2023-02-11T07:14:04.292Z,308.90
2023-02-11T07:15:04.305Z,386.50
2023-02-11T07:16:04.345Z,346.10
2023-02-11T07:17:04.273Z,319.60
2023-02-11T07:18:04.307Z,325.80
2023-02-11T07:19:04.283Z,291.20
2023-02-11T07:20:04.262Z,427.20
2023-02-11T07:21:04.225Z,429.50
2023-02-11T07:22:04.217Z,419.00
2023-02-11T07:23:04.234Z,403.00
2023-02-11T07:24:04.193Z,279.10
2023-02-11T07:25:04.195Z,323.30
2023-02-11T07:26:04.178Z,397.00
2023-02-11T07:27:04.182Z,404.50
2023-02-11T07:28:04.217Z,398.70
2023-02-11T07:29:04.153Z,402.50
2023-02-11T07:30:06.970Z,339.00
2023-02-11T07:31:04.219Z,392.40
2023-02-11T07:32:04.211Z,339.10
2023-02-11T07:33:04.177Z,290.50
2023-02-11T07:34:04.111Z,304.30
2023-02-11T07:35:04.183Z,318.90
2023-02-11T07:36:04.068Z,358.70
2023-02-11T07:37:04.131Z,302.30
2023-02-11T07:38:04.064Z,379.50
2023-02-11T07:39:04.054Z,372.40
2023-02-11T07:40:04.055Z,362.60
2023-02-11T07:41:04.030Z,377.40
2023-02-11T07:42:04.013Z,335.00
2023-02-11T07:43:04.013Z,373.70
2023-02-11T07:44:04.097Z,373.20
2023-02-11T07:45:03.985Z,285.10
2023-02-11T07:46:03.989Z,352.90
2023-02-11T07:47:04.029Z,375.70
2023-02-11T07:48:03.976Z,353.00
2023-02-11T07:49:03.962Z,236.20
2023-02-11T07:50:03.935Z,360.50
2023-02-11T07:51:03.925Z,379.00
2023-02-11T07:52:03.911Z,390.50
2023-02-11T07:53:03.948Z,346.40
2023-02-11T07:54:03.912Z,308.60
2023-02-11T07:55:05.015Z,390.10
2023-02-11T07:56:03.870Z,382.60
2023-02-11T07:57:03.862Z,425.10
2023-02-11T07:58:03.913Z,368.80
2023-02-11T07:59:03.862Z,368.70
2023-02-11T08:00:03.831Z,338.20
2023-02-11T08:01:03.867Z,333.80
2023-02-11T08:02:03.854Z,311.80
2023-02-11T08:03:03.796Z,352.40
2023-02-11T08:04:03.815Z,278.60
2023-02-11T08:05:03.820Z,287.00
2023-02-11T08:06:03.777Z,277.40
2023-02-11T08:07:03.759Z,410.30
2023-02-11T08:08:03.746Z,311.80
2023-02-11T08:09:03.758Z,413.70
2023-02-11T08:10:03.720Z,350.30
2023-02-11T08:11:03.712Z,339.00
2023-02-11T08:12:03.766Z,339.60
2023-02-11T08:13:03.698Z,296.80
2023-02-11T08:14:03.727Z,313.50
2023-02-11T08:15:03.694Z,284.00
2023-02-11T08:16:04.400Z,393.70
2023-02-11T08:17:03.661Z,258.90
2023-02-11T08:18:03.630Z,342.00
2023-02-11T08:19:03.665Z,326.10
2023-02-11T08:20:03.635Z,415.50
2023-02-11T08:21:03.607Z,321.90
2023-02-11T08:22:03.602Z,328.70
2023-02-11T08:23:03.588Z,264.70
2023-02-11T08:24:03.569Z,293.80
2023-02-11T08:25:03.607Z,367.00
2023-02-11T08:26:03.550Z,383.30
2023-02-11T08:27:03.548Z,360.80
2023-02-11T08:28:03.548Z,317.50
2023-02-11T08:29:03.544Z,317.00
2023-02-11T08:30:03.519Z,322.60
2023-02-11T08:31:03.525Z,340.10
2023-02-11T08:32:03.563Z,362.90
2023-02-11T08:33:03.475Z,309.60
2023-02-11T08:34:03.489Z,278.80
2023-02-11T08:35:03.471Z,275.80
2023-02-11T08:36:03.477Z,253.80
2023-02-11T08:37:03.431Z,318.80
2023-02-11T08:38:03.427Z,248.30
2023-02-11T08:39:17.551Z,308.00
2023-02-11T08:40:03.407Z,243.00
2023-02-11T08:41:03.390Z,398.90
2023-02-11T08:42:03.406Z,270.50
2023-02-11T08:43:04.369Z,338.60
2023-02-11T08:44:03.372Z,339.40
2023-02-11T08:45:03.346Z,313.60
2023-02-11T08:46:03.435Z,342.60
2023-02-11T08:47:03.328Z,332.00
2023-02-11T08:48:03.306Z,351.50
2023-02-11T08:49:03.322Z,291.50
2023-02-11T08:50:03.288Z,314.10
2023-02-11T08:51:03.307Z,287.00
2023-02-11T08:52:03.264Z,237.40
2023-02-11T08:53:03.259Z,280.80
2023-02-11T08:54:03.255Z,322.30
2023-02-11T08:55:03.253Z,366.20
2023-02-11T08:56:03.231Z,362.20
2023-02-11T08:57:03.249Z,305.00
2023-02-11T08:58:03.220Z,311.80
2023-02-11T08:59:03.209Z,300.20
2023-02-11T09:00:03.183Z,343.70
2023-02-11T09:01:03.213Z,331.30
2023-02-11T09:02:03.182Z,329.30
2023-02-11T09:03:03.158Z,334.10
2023-02-11T09:04:03.179Z,319.30
2023-02-11T09:05:03.139Z,262.50
2023-02-11T09:06:03.118Z,322.40
2023-02-11T09:07:03.110Z,383.70
2023-02-11T09:08:03.100Z,243.50
2023-02-11T09:09:03.142Z,279.50
2023-02-11T09:10:03.081Z,330.20
2023-02-11T09:11:03.084Z,374.20
2023-02-11T09:12:03.057Z,330.90
2023-02-11T09:13:03.050Z,288.30
2023-02-11T09:14:03.117Z,318.30
2023-02-11T09:15:03.025Z,282.60
2023-02-11T09:16:03.045Z,377.90
2023-02-11T09:17:03.111Z,275.80
2023-02-11T09:18:03.000Z,310.50
2023-02-11T09:19:03.005Z,366.50
2023-02-11T09:20:02.974Z,368.00
2023-02-11T09:21:02.973Z,287.80
2023-02-11T09:22:02.951Z,318.70
2023-02-11T09:23:02.960Z,316.90
2023-02-11T09:24:02.950Z,281.00
2023-02-11T09:25:02.920Z,300.10
2023-02-11T09:26:02.919Z,356.50
2023-02-11T09:27:02.914Z,359.30
2023-02-11T09:28:02.910Z,375.90
2023-02-11T09:29:02.899Z,378.70
2023-02-11T09:30:02.884Z,314.20
2023-02-11T09:31:03.053Z,378.00
2023-02-11T09:32:03.014Z,277.10
2023-02-11T09:33:02.837Z,280.00
2023-02-11T09:34:08.858Z,255.90
2023-02-11T09:35:02.822Z,320.50
2023-02-11T09:36:05.475Z,328.50
2023-02-11T09:37:02.794Z,271.00
2023-02-11T09:38:02.820Z,342.80
2023-02-11T09:39:02.812Z,302.80
2023-02-11T09:40:02.802Z,374.80
2023-02-11T09:41:02.789Z,335.10
2023-02-11T09:42:02.743Z,299.80
2023-02-11T09:43:04.267Z,346.80
2023-02-11T09:44:02.766Z,355.90
2023-02-11T09:45:02.764Z,330.80
2023-02-11T09:46:02.764Z,252.80
2023-02-11T09:47:02.700Z,269.10
2023-02-11T09:48:05.832Z,284.60
2023-02-11T09:49:02.747Z,307.30
2023-02-11T09:50:02.664Z,316.80
2023-02-11T09:51:02.677Z,304.30
2023-02-11T09:52:02.636Z,244.70
2023-02-11T09:53:02.685Z,331.50
2023-02-11T09:54:05.212Z,258.80
2023-02-11T09:55:02.614Z,283.50
2023-02-11T09:56:02.616Z,353.00
2023-02-11T09:57:02.595Z,282.30
2023-02-11T09:58:02.612Z,268.80
2023-02-11T09:59:02.587Z,290.00
2023-02-11T10:00:02.618Z,271.40
2023-02-11T10:01:02.651Z,253.20
2023-02-11T10:02:02.554Z,297.20
2023-02-11T10:03:02.531Z,273.00
2023-02-11T10:04:02.547Z,319.10
2023-02-11T10:05:02.522Z,272.70
2023-02-11T10:06:02.518Z,277.90
2023-02-11T10:07:02.489Z,304.00
2023-02-11T10:08:02.490Z,321.80
2023-02-11T10:09:02.467Z,346.40
2023-02-11T10:10:02.478Z,267.40
2023-02-11T10:11:02.473Z,334.00
2023-02-11T10:12:02.438Z,370.50
2023-02-11T10:13:02.424Z,337.90
2023-02-11T10:14:02.416Z,266.40
2023-02-11T10:15:02.412Z,336.50
2023-02-11T10:16:02.447Z,327.70
2023-02-11T10:17:02.527Z,366.70
2023-02-11T10:18:02.369Z,326.10
2023-02-11T10:19:02.367Z,338.70
2023-02-11T10:20:02.365Z,269.20
2023-02-11T10:21:02.345Z,332.60
2023-02-11T10:22:02.384Z,318.40
2023-02-11T10:23:02.348Z,347.50
2023-02-11T10:24:02.352Z,309.70
2023-02-11T10:25:02.336Z,230.90
2023-02-11T10:26:02.293Z,310.60
2023-02-11T10:27:02.318Z,366.40
2023-02-11T10:28:02.319Z,248.60
2023-02-11T10:29:02.269Z,318.70
2023-02-11T10:30:02.254Z,331.30
2023-02-11T10:31:02.412Z,260.30
2023-02-11T10:32:02.363Z,342.00
2023-02-11T10:33:02.215Z,326.80
2023-02-11T10:34:02.226Z,287.80
2023-02-11T10:35:02.248Z,255.70
2023-02-11T10:36:02.207Z,312.80
2023-02-11T10:37:02.229Z,332.10
2023-02-11T10:38:02.171Z,343.20
2023-02-11T10:39:02.163Z,346.60
2023-02-11T10:40:02.196Z,287.10
2023-02-11T10:41:02.162Z,295.20
2023-02-11T10:42:02.144Z,331.70
2023-02-11T10:43:02.140Z,344.20
2023-02-11T10:44:02.129Z,360.90
2023-02-11T10:45:02.127Z,379.10
2023-02-11T10:46:02.170Z,354.50
2023-02-11T10:47:02.119Z,370.90
2023-02-11T10:48:02.092Z,309.30
2023-02-11T10:49:02.069Z,302.60
2023-02-11T10:50:02.092Z,392.70
2023-02-11T10:51:02.054Z,409.40
2023-02-11T10:52:02.039Z,287.90
2023-02-11T10:53:02.031Z,336.80
2023-02-11T10:54:02.035Z,263.80
2023-02-11T10:55:02.052Z,261.20
2023-02-11T10:56:02.030Z,297.70
2023-02-11T10:57:02.009Z,361.40
2023-02-11T10:58:01.988Z,330.60
2023-02-11T10:59:01.962Z,282.10
2023-02-11T11:00:01.952Z,291.00
2023-02-11T11:01:03.710Z,289.40
2023-02-11T11:02:02.041Z,353.80
2023-02-11T11:03:01.934Z,314.00
2023-02-11T11:04:01.912Z,290.70
2023-02-11T11:05:02.000Z,336.60
2023-02-11T11:06:01.923Z,295.30
2023-02-11T11:07:01.907Z,312.80
2023-02-11T11:08:01.902Z,332.00
2023-02-11T11:09:01.864Z,296.30
2023-02-11T11:10:01.878Z,242.80
2023-02-11T11:11:01.872Z,284.90
2023-02-11T11:12:01.833Z,291.50
2023-02-11T11:13:01.823Z,288.30
2023-02-11T11:14:01.823Z,268.30
2023-02-11T11:15:01.855Z,238.60
2023-02-11T11:16:01.824Z,198.20
2023-02-11T11:17:01.817Z,262.10
2023-02-11T11:18:15.629Z,223.70
2023-02-11T11:19:01.789Z,251.40
2023-02-11T11:20:01.800Z,203.70
2023-02-11T11:21:01.751Z,151.60
2023-02-11T11:22:01.760Z,195.60
2023-02-11T11:23:01.761Z,136.20
2023-02-11T11:24:01.702Z,167.50
2023-02-11T11:25:01.700Z,179.50
2023-02-11T11:26:01.685Z,209.60
2023-02-11T11:27:01.701Z,224.70
2023-02-11T11:28:01.674Z,148.20
2023-02-11T11:29:01.644Z,150.60
2023-02-11T11:30:01.651Z,153.80
2023-02-11T11:31:01.713Z,178.80
2023-02-11T11:32:01.699Z,134.10
2023-02-11T11:33:01.607Z,184.50
2023-02-11T11:34:01.592Z,155.60
2023-02-11T11:35:01.586Z,148.30
2023-02-11T11:36:01.588Z,146.50
2023-02-11T11:37:01.549Z,177.40
2023-02-11T11:38:02.157Z,145.80
2023-02-11T11:39:01.523Z,207.70
2023-02-11T11:40:01.544Z,190.70
2023-02-11T11:41:01.503Z,199.20
2023-02-11T11:42:01.506Z,178.80
2023-02-11T11:43:01.483Z,209.30
2023-02-11T11:44:01.477Z,153.60
2023-02-11T11:45:01.488Z,214.60
2023-02-11T11:46:01.455Z,178.30
2023-02-11T11:47:01.526Z,172.90
2023-02-11T11:48:01.435Z,137.90
2023-02-11T11:49:01.423Z,175.50
2023-02-11T11:50:01.427Z,188.60
2023-02-11T11:51:01.405Z,201.70
2023-02-11T11:52:01.383Z,176.60
2023-02-11T11:53:01.384Z,146.70
2023-02-11T11:54:01.369Z,167.60
2023-02-11T11:55:01.346Z,154.60
2023-02-11T11:56:01.343Z,161.20
2023-02-11T11:57:01.329Z,163.00
2023-02-11T11:58:01.331Z,215.90
2023-02-11T11:59:01.307Z,164.00
2023-02-11T12:00:01.360Z,161.60
2023-02-11T12:01:01.283Z,190.80
2023-02-11T12:02:01.357Z,175.80
2023-02-11T12:03:01.307Z,179.50
2023-02-11T12:04:01.261Z,167.40
2023-02-11T12:05:01.260Z,175.60
2023-02-11T12:06:01.234Z,186.30
2023-02-11T12:07:01.216Z,209.90
2023-02-11T12:08:01.222Z,161.40
2023-02-11T12:09:01.196Z,202.30
2023-02-11T12:10:01.217Z,177.60
2023-02-11T12:11:01.172Z,116.40
2023-02-11T12:12:01.175Z,142.60
2023-02-11T12:13:01.154Z,199.70
2023-02-11T12:14:01.146Z,167.40
2023-02-11T12:15:01.169Z,139.90
2023-02-11T12:16:01.189Z,169.60
2023-02-11T12:17:01.138Z,209.40
2023-02-11T12:18:01.119Z,161.10
2023-02-11T12:19:01.099Z,169.30
2023-02-11T12:20:01.152Z,143.80
2023-02-11T12:21:01.069Z,183.00
2023-02-11T12:22:01.074Z,194.50
2023-02-11T12:23:01.065Z,164.50
2023-02-11T12:24:01.059Z,184.20
2023-02-11T12:25:01.044Z,213.70
2023-02-11T12:26:01.029Z,218.00
2023-02-11T12:27:01.002Z,198.70
2023-02-11T12:28:01.037Z,213.80
2023-02-11T12:29:00.983Z,134.70
2023-02-11T12:30:00.991Z,225.20
2023-02-11T12:31:01.019Z,233.80